sensor_id;sensor_type;location;lat;lon;timestamp;pressure;altitude;pressure_sealevel;temperature;humidity
40872;BME280;26591;43.264;26.940;2022-09-09T00:01:04;99177.59;;;21.16;57.20
40872;BME280;26591;43.264;26.940;2022-09-09T00:03:40;99175.66;;;20.93;57.19
40872;BME280;26591;43.264;26.940;2022-09-09T00:06:16;99174.47;;;20.88;57.07
40872;BME280;26591;43.264;26.940;2022-09-09T00:09:00;99175.59;;;21.11;56.32
40872;BME280;26591;43.264;26.940;2022-09-09T00:11:43;99173.41;;;21.32;55.88
40872;BME280;26591;43.264;26.940;2022-09-09T00:17:01;99173.50;;;21.13;56.20
40872;BME280;26591;43.264;26.940;2022-09-09T00:22:40;99171.00;;;20.88;57.33
40872;BME280;26591;43.264;26.940;2022-09-09T00:25:33;99168.47;;;21.17;56.58
40872;BME280;26591;43.264;26.940;2022-09-09T00:28:02;99168.34;;;21.24;56.24
40872;BME280;26591;43.264;26.940;2022-09-09T00:30:34;99165.09;;;21.45;55.88
40872;BME280;26591;43.264;26.940;2022-09-09T00:33:03;99164.38;;;21.50;55.96
40872;BME280;26591;43.264;26.940;2022-09-09T00:35:39;99165.78;;;21.53;55.77
40872;BME280;26591;43.264;26.940;2022-09-09T00:38:28;99158.66;;;21.70;55.49
40872;BME280;26591;43.264;26.940;2022-09-09T00:41:19;99157.38;;;21.61;55.62
40872;BME280;26591;43.264;26.940;2022-09-09T00:44:00;99161.22;;;21.77;55.42
40872;BME280;26591;43.264;26.940;2022-09-09T00:52:17;99163.97;;;21.94;54.74
40872;BME280;26591;43.264;26.940;2022-09-09T00:57:35;99163.19;;;21.82;54.67
40872;BME280;26591;43.264;26.940;2022-09-09T01:03:08;99156.53;;;21.72;55.06
40872;BME280;26591;43.264;26.940;2022-09-09T01:17:05;99140.84;;;21.81;54.61
40872;BME280;26591;43.264;26.940;2022-09-09T01:27:33;99152.56;;;21.63;54.67
40872;BME280;26591;43.264;26.940;2022-09-09T01:30:00;99145.91;;;21.66;54.99
40872;BME280;26591;43.264;26.940;2022-09-09T01:32:50;99152.31;;;21.76;54.56
40872;BME280;26591;43.264;26.940;2022-09-09T01:38:05;99145.44;;;21.69;54.13
40872;BME280;26591;43.264;26.940;2022-09-09T01:40:31;99146.25;;;21.69;54.26
40872;BME280;26591;43.264;26.940;2022-09-09T01:42:57;99145.19;;;21.70;54.08
40872;BME280;26591;43.264;26.940;2022-09-09T01:45:23;99142.75;;;21.69;54.12
40872;BME280;26591;43.264;26.940;2022-09-09T01:47:52;99140.16;;;21.50;54.34
40872;BME280;26591;43.264;26.940;2022-09-09T01:50:18;99142.84;;;21.62;54.56
40872;BME280;26591;43.264;26.940;2022-09-09T01:52:47;99141.09;;;21.68;53.97
40872;BME280;26591;43.264;26.940;2022-09-09T01:55:14;99144.59;;;21.44;53.85
40872;BME280;26591;43.264;26.940;2022-09-09T01:58:34;99151.13;;;21.48;54.16
40872;BME280;26591;43.264;26.940;2022-09-09T02:00:43;99155.47;;;21.49;54.32
40872;BME280;26591;43.264;26.940;2022-09-09T02:03:28;99151.84;;;21.56;53.96
40872;BME280;26591;43.264;26.940;2022-09-09T02:06:33;99147.88;;;21.34;54.05
40872;BME280;26591;43.264;26.940;2022-09-09T02:09:03;99144.94;;;21.36;54.01
40872;BME280;26591;43.264;26.940;2022-09-09T02:11:30;99141.66;;;21.34;53.99
40872;BME280;26591;43.264;26.940;2022-09-09T02:14:03;99144.69;;;21.49;53.67
40872;BME280;26591;43.264;26.940;2022-09-09T02:16:49;99141.31;;;21.54;53.77
40872;BME280;26591;43.264;26.940;2022-09-09T02:19:38;99143.31;;;21.35;54.09
40872;BME280;26591;43.264;26.940;2022-09-09T02:22:05;99136.41;;;21.27;54.30
40872;BME280;26591;43.264;26.940;2022-09-09T02:24:34;99150.66;;;21.16;54.66
40872;BME280;26591;43.264;26.940;2022-09-09T02:27:02;99152.66;;;21.21;54.52
40872;BME280;26591;43.264;26.940;2022-09-09T02:29:42;99151.03;;;21.19;54.09
40872;BME280;26591;43.264;26.940;2022-09-09T02:32:15;99147.06;;;21.22;54.12
40872;BME280;26591;43.264;26.940;2022-09-09T02:34:49;99150.22;;;21.31;53.59
40872;BME280;26591;43.264;26.940;2022-09-09T02:37:22;99140.38;;;21.25;53.57
40872;BME280;26591;43.264;26.940;2022-09-09T02:39:50;99142.22;;;21.00;54.24
40872;BME280;26591;43.264;26.940;2022-09-09T02:42:16;99137.06;;;20.87;54.25
40872;BME280;26591;43.264;26.940;2022-09-09T02:44:42;99137.91;;;20.87;54.61
40872;BME280;26591;43.264;26.940;2022-09-09T02:50:00;99139.69;;;21.06;54.29
40872;BME280;26591;43.264;26.940;2022-09-09T02:52:56;99136.63;;;21.02;54.98
40872;BME280;26591;43.264;26.940;2022-09-09T02:58:09;99132.84;;;20.79;54.98
40872;BME280;26591;43.264;26.940;2022-09-09T03:00:37;99128.19;;;20.86;54.42
40872;BME280;26591;43.264;26.940;2022-09-09T03:03:05;99130.19;;;20.91;54.12
40872;BME280;26591;43.264;26.940;2022-09-09T03:05:31;99130.78;;;20.93;54.30
40872;BME280;26591;43.264;26.940;2022-09-09T03:07:57;99133.22;;;20.95;54.04
40872;BME280;26591;43.264;26.940;2022-09-09T03:10:23;99126.09;;;21.00;53.80
40872;BME280;26591;43.264;26.940;2022-09-09T03:12:48;99123.75;;;20.92;53.68
40872;BME280;26591;43.264;26.940;2022-09-09T03:15:14;99125.50;;;20.86;53.99
40872;BME280;26591;43.264;26.940;2022-09-09T03:17:40;99129.59;;;20.89;53.88
40872;BME280;26591;43.264;26.940;2022-09-09T03:20:06;99126.25;;;20.63;54.17
40872;BME280;26591;43.264;26.940;2022-09-09T03:22:33;99118.88;;;20.58;54.68
40872;BME280;26591;43.264;26.940;2022-09-09T03:24:59;99125.66;;;20.61;54.40
40872;BME280;26591;43.264;26.940;2022-09-09T03:27:24;99125.97;;;20.53;54.78
40872;BME280;26591;43.264;26.940;2022-09-09T03:29:50;99129.16;;;20.62;54.34
40872;BME280;26591;43.264;26.940;2022-09-09T03:32:16;99131.97;;;20.67;53.81
40872;BME280;26591;43.264;26.940;2022-09-09T03:34:43;99136.06;;;20.57;54.51
40872;BME280;26591;43.264;26.940;2022-09-09T03:37:09;99130.63;;;20.46;54.74
40872;BME280;26591;43.264;26.940;2022-09-09T03:39:34;99128.94;;;20.63;54.27
40872;BME280;26591;43.264;26.940;2022-09-09T03:42:00;99127.25;;;20.50;54.47
40872;BME280;26591;43.264;26.940;2022-09-09T03:44:29;99126.34;;;20.68;53.75
40872;BME280;26591;43.264;26.940;2022-09-09T03:46:55;99128.09;;;20.63;54.08
40872;BME280;26591;43.264;26.940;2022-09-09T03:49:21;99122.81;;;20.56;54.67
40872;BME280;26591;43.264;26.940;2022-09-09T03:51:47;99116.53;;;20.62;54.56
40872;BME280;26591;43.264;26.940;2022-09-09T03:54:12;99118.00;;;20.88;53.80
40872;BME280;26591;43.264;26.940;2022-09-09T03:56:38;99122.09;;;21.03;53.17
40872;BME280;26591;43.264;26.940;2022-09-09T03:59:04;99115.22;;;21.43;52.84
40872;BME280;26591;43.264;26.940;2022-09-09T04:01:30;99112.72;;;21.77;51.95
40872;BME280;26591;43.264;26.940;2022-09-09T04:03:55;99111.00;;;22.00;51.50
40872;BME280;26591;43.264;26.940;2022-09-09T04:06:23;99113.44;;;22.13;51.50
40872;BME280;26591;43.264;26.940;2022-09-09T04:08:49;99119.63;;;22.54;51.01
40872;BME280;26591;43.264;26.940;2022-09-09T04:11:15;99124.94;;;23.00;49.51
40872;BME280;26591;43.264;26.940;2022-09-09T04:13:41;99125.00;;;23.40;49.08
40872;BME280;26591;43.264;26.940;2022-09-09T04:16:07;99124.31;;;24.11;47.22
40872;BME280;26591;43.264;26.940;2022-09-09T04:18:34;99128.25;;;24.53;45.92
40872;BME280;26591;43.264;26.940;2022-09-09T04:21:00;99136.94;;;24.82;46.08
40872;BME280;26591;43.264;26.940;2022-09-09T04:23:27;99136.69;;;25.22;45.90
40872;BME280;26591;43.264;26.940;2022-09-09T04:25:58;99130.00;;;25.83;43.61
40872;BME280;26591;43.264;26.940;2022-09-09T04:28:26;99135.19;;;25.95;42.91
40872;BME280;26591;43.264;26.940;2022-09-09T04:30:52;99133.03;;;26.02;42.92
40872;BME280;26591;43.264;26.940;2022-09-09T04:33:18;99135.34;;;26.46;42.54
40872;BME280;26591;43.264;26.940;2022-09-09T04:35:49;99135.41;;;26.93;41.33
40872;BME280;26591;43.264;26.940;2022-09-09T04:38:16;99131.31;;;27.11;40.66
40872;BME280;26591;43.264;26.940;2022-09-09T04:40:51;99138.91;;;27.35;40.92
40872;BME280;26591;43.264;26.940;2022-09-09T04:43:19;99138.88;;;27.55;40.28
40872;BME280;26591;43.264;26.940;2022-09-09T04:45:50;99139.84;;;27.91;39.57
40872;BME280;26591;43.264;26.940;2022-09-09T04:48:17;99141.06;;;28.19;38.48
40872;BME280;26591;43.264;26.940;2022-09-09T04:50:42;99147.34;;;28.20;39.11
40872;BME280;26591;43.264;26.940;2022-09-09T04:53:08;99145.16;;;28.61;38.57
40872;BME280;26591;43.264;26.940;2022-09-09T04:55:34;99142.94;;;29.03;37.87
40872;BME280;26591;43.264;26.940;2022-09-09T04:58:04;99144.25;;;29.11;37.76
40872;BME280;26591;43.264;26.940;2022-09-09T05:00:30;99142.91;;;29.38;37.27
40872;BME280;26591;43.264;26.940;2022-09-09T05:02:56;99135.28;;;29.64;36.94
40872;BME280;26591;43.264;26.940;2022-09-09T05:05:22;99138.69;;;29.75;36.67
40872;BME280;26591;43.264;26.940;2022-09-09T05:07:47;99144.84;;;29.62;36.88
40872;BME280;26591;43.264;26.940;2022-09-09T05:10:13;99149.69;;;29.89;36.81
40872;BME280;26591;43.264;26.940;2022-09-09T05:12:40;99151.22;;;30.01;36.61
40872;BME280;26591;43.264;26.940;2022-09-09T05:15:06;99154.94;;;30.29;36.07
40872;BME280;26591;43.264;26.940;2022-09-09T05:17:32;99139.88;;;30.32;36.34
40872;BME280;26591;43.264;26.940;2022-09-09T05:19:59;99154.44;;;30.65;35.76
40872;BME280;26591;43.264;26.940;2022-09-09T05:22:24;99149.78;;;30.66;35.06
40872;BME280;26591;43.264;26.940;2022-09-09T05:24:50;99143.47;;;30.84;34.81
40872;BME280;26591;43.264;26.940;2022-09-09T05:27:18;99150.16;;;31.25;34.23
40872;BME280;26591;43.264;26.940;2022-09-09T05:29:45;99142.00;;;31.39;34.07
40872;BME280;26591;43.264;26.940;2022-09-09T05:32:11;99140.19;;;31.01;34.55
40872;BME280;26591;43.264;26.940;2022-09-09T05:34:38;99144.53;;;31.02;35.00
40872;BME280;26591;43.264;26.940;2022-09-09T05:37:07;99153.72;;;31.26;35.03
40872;BME280;26591;43.264;26.940;2022-09-09T05:39:33;99143.22;;;31.47;32.98
40872;BME280;26591;43.264;26.940;2022-09-09T05:42:01;99142.59;;;31.36;33.14
40872;BME280;26591;43.264;26.940;2022-09-09T05:44:28;99134.91;;;31.05;33.57
40872;BME280;26591;43.264;26.940;2022-09-09T05:46:54;99138.34;;;30.64;33.84
40872;BME280;26591;43.264;26.940;2022-09-09T05:49:20;99133.78;;;30.21;34.76
40872;BME280;26591;43.264;26.940;2022-09-09T05:51:46;99133.09;;;30.29;35.15
40872;BME280;26591;43.264;26.940;2022-09-09T05:54:13;99141.19;;;30.15;35.08
40872;BME280;26591;43.264;26.940;2022-09-09T05:56:41;99141.34;;;30.05;34.96
40872;BME280;26591;43.264;26.940;2022-09-09T05:59:07;99143.53;;;30.03;35.37
40872;BME280;26591;43.264;26.940;2022-09-09T06:01:34;99139.78;;;29.74;35.61
40872;BME280;26591;43.264;26.940;2022-09-09T06:04:01;99139.41;;;29.62;35.84
40872;BME280;26591;43.264;26.940;2022-09-09T06:06:30;99139.03;;;29.68;35.32
40872;BME280;26591;43.264;26.940;2022-09-09T06:08:57;99140.59;;;29.99;35.48
40872;BME280;26591;43.264;26.940;2022-09-09T06:11:28;99150.56;;;30.09;35.33
40872;BME280;26591;43.264;26.940;2022-09-09T06:13:56;99148.00;;;29.93;34.81
40872;BME280;26591;43.264;26.940;2022-09-09T06:16:25;99147.31;;;30.07;35.34
40872;BME280;26591;43.264;26.940;2022-09-09T06:18:52;99131.41;;;29.46;35.40
40872;BME280;26591;43.264;26.940;2022-09-09T06:21:21;99133.81;;;29.72;35.91
40872;BME280;26591;43.264;26.940;2022-09-09T06:23:48;99139.00;;;30.36;34.64
40872;BME280;26591;43.264;26.940;2022-09-09T06:26:22;99137.66;;;30.53;33.74
40872;BME280;26591;43.264;26.940;2022-09-09T06:28:50;99134.97;;;30.86;34.31
40872;BME280;26591;43.264;26.940;2022-09-09T06:31:19;99138.44;;;30.92;33.83
40872;BME280;26591;43.264;26.940;2022-09-09T06:33:52;99138.34;;;31.44;32.37
40872;BME280;26591;43.264;26.940;2022-09-09T06:36:32;99145.00;;;30.90;33.44
40872;BME280;26591;43.264;26.940;2022-09-09T06:38:58;99140.38;;;29.95;34.99
40872;BME280;26591;43.264;26.940;2022-09-09T06:41:27;99130.63;;;29.65;35.05
40872;BME280;26591;43.264;26.940;2022-09-09T06:43:53;99136.66;;;29.62;34.79
40872;BME280;26591;43.264;26.940;2022-09-09T06:46:28;99133.75;;;29.23;35.00
40872;BME280;26591;43.264;26.940;2022-09-09T06:48:56;99130.28;;;29.18;35.05
40872;BME280;26591;43.264;26.940;2022-09-09T06:51:25;99131.91;;;28.89;34.77
40872;BME280;26591;43.264;26.940;2022-09-09T06:53:52;99135.22;;;28.41;35.31
40872;BME280;26591;43.264;26.940;2022-09-09T06:58:51;99134.69;;;28.84;33.82
40872;BME280;26591;43.264;26.940;2022-09-09T07:01:23;99127.13;;;28.36;34.05
40872;BME280;26591;43.264;26.940;2022-09-09T07:03:52;99129.31;;;29.03;33.13
40872;BME280;26591;43.264;26.940;2022-09-09T07:06:23;99120.03;;;29.10;32.11
40872;BME280;26591;43.264;26.940;2022-09-09T07:08:53;99115.56;;;28.10;33.04
40872;BME280;26591;43.264;26.940;2022-09-09T07:11:21;99123.09;;;27.63;34.39
40872;BME280;26591;43.264;26.940;2022-09-09T07:13:48;99133.63;;;27.75;33.99
40872;BME280;26591;43.264;26.940;2022-09-09T07:16:16;99132.22;;;27.93;34.55
40872;BME280;26591;43.264;26.940;2022-09-09T07:18:43;99132.53;;;27.86;34.19
40872;BME280;26591;43.264;26.940;2022-09-09T07:21:11;99129.75;;;27.91;34.47
40872;BME280;26591;43.264;26.940;2022-09-09T07:23:40;99117.66;;;27.52;34.41
40872;BME280;26591;43.264;26.940;2022-09-09T07:26:14;99120.72;;;26.78;36.04
40872;BME280;26591;43.264;26.940;2022-09-09T07:28:40;99122.63;;;26.73;35.97
40872;BME280;26591;43.264;26.940;2022-09-09T07:31:08;99122.59;;;26.42;36.97
40872;BME280;26591;43.264;26.940;2022-09-09T07:33:38;99113.34;;;26.32;36.81
40872;BME280;26591;43.264;26.940;2022-09-09T07:36:13;99130.50;;;26.74;36.80
40872;BME280;26591;43.264;26.940;2022-09-09T07:38:47;99112.84;;;26.66;36.47
40872;BME280;26591;43.264;26.940;2022-09-09T07:41:15;99114.22;;;26.54;37.23
40872;BME280;26591;43.264;26.940;2022-09-09T07:43:44;99110.63;;;26.32;36.95
40872;BME280;26591;43.264;26.940;2022-09-09T07:46:11;99109.06;;;26.99;36.85
40872;BME280;26591;43.264;26.940;2022-09-09T07:48:38;99104.19;;;26.85;35.97
40872;BME280;26591;43.264;26.940;2022-09-09T07:51:07;99112.31;;;27.01;36.58
40872;BME280;26591;43.264;26.940;2022-09-09T07:53:33;99117.50;;;26.97;36.17
40872;BME280;26591;43.264;26.940;2022-09-09T07:56:09;99108.72;;;27.41;36.11
40872;BME280;26591;43.264;26.940;2022-09-09T07:58:38;99114.59;;;27.75;35.05
40872;BME280;26591;43.264;26.940;2022-09-09T08:01:24;99091.63;;;27.46;35.89
40872;BME280;26591;43.264;26.940;2022-09-09T08:03:59;99097.84;;;27.57;36.14
40872;BME280;26591;43.264;26.940;2022-09-09T08:06:28;99083.94;;;27.64;36.37
40872;BME280;26591;43.264;26.940;2022-09-09T08:08:54;99085.06;;;27.52;36.26
40872;BME280;26591;43.264;26.940;2022-09-09T08:11:21;99068.06;;;27.81;35.62
40872;BME280;26591;43.264;26.940;2022-09-09T08:13:49;99073.38;;;27.52;37.14
40872;BME280;26591;43.264;26.940;2022-09-09T08:16:26;99064.31;;;27.77;36.78
40872;BME280;26591;43.264;26.940;2022-09-09T08:18:53;99068.31;;;27.90;36.73
40872;BME280;26591;43.264;26.940;2022-09-09T08:21:27;99059.34;;;27.90;36.19
40872;BME280;26591;43.264;26.940;2022-09-09T08:23:55;99061.97;;;28.05;36.61
40872;BME280;26591;43.264;26.940;2022-09-09T08:26:23;99060.22;;;27.75;36.64
40872;BME280;26591;43.264;26.940;2022-09-09T08:28:50;99058.69;;;28.08;36.80
40872;BME280;26591;43.264;26.940;2022-09-09T08:31:21;99056.50;;;28.50;35.78
40872;BME280;26591;43.264;26.940;2022-09-09T08:33:48;99053.94;;;28.64;35.39
40872;BME280;26591;43.264;26.940;2022-09-09T08:36:18;99064.41;;;28.86;35.05
40872;BME280;26591;43.264;26.940;2022-09-09T08:38:51;99071.19;;;28.54;35.46
40872;BME280;26591;43.264;26.940;2022-09-09T08:44:31;99065.34;;;28.31;36.57
40872;BME280;26591;43.264;26.940;2022-09-09T08:52:28;99060.63;;;28.47;36.66
40872;BME280;26591;43.264;26.940;2022-09-09T08:58:04;99075.06;;;27.98;37.56
40872;BME280;26591;43.264;26.940;2022-09-09T09:00:42;99068.47;;;28.14;36.97
40872;BME280;26591;43.264;26.940;2022-09-09T09:03:18;99076.94;;;28.47;37.02
40872;BME280;26591;43.264;26.940;2022-09-09T09:06:04;99079.88;;;28.22;37.42
40872;BME280;26591;43.264;26.940;2022-09-09T09:08:43;99088.34;;;28.05;37.46
40872;BME280;26591;43.264;26.940;2022-09-09T09:11:11;99062.13;;;27.79;38.14
40872;BME280;26591;43.264;26.940;2022-09-09T09:13:53;99052.50;;;27.97;37.66
40872;BME280;26591;43.264;26.940;2022-09-09T09:16:41;99063.06;;;27.54;38.74
40872;BME280;26591;43.264;26.940;2022-09-09T09:19:13;99059.81;;;28.02;37.46
40872;BME280;26591;43.264;26.940;2022-09-09T09:21:45;99057.41;;;28.40;37.51
40872;BME280;26591;43.264;26.940;2022-09-09T09:24:42;99057.00;;;28.23;37.35
40872;BME280;26591;43.264;26.940;2022-09-09T09:27:18;99066.81;;;28.19;37.95
40872;BME280;26591;43.264;26.940;2022-09-09T09:29:48;99067.34;;;28.21;37.91
40872;BME280;26591;43.264;26.940;2022-09-09T09:32:18;99043.28;;;28.68;36.89
40872;BME280;26591;43.264;26.940;2022-09-09T09:35:11;99051.63;;;28.07;38.17
40872;BME280;26591;43.264;26.940;2022-09-09T09:37:40;99048.50;;;28.64;37.50
40872;BME280;26591;43.264;26.940;2022-09-09T09:40:10;99025.50;;;28.81;37.13
40872;BME280;26591;43.264;26.940;2022-09-09T09:42:36;99018.72;;;28.78;37.07
40872;BME280;26591;43.264;26.940;2022-09-09T09:45:32;99019.56;;;29.03;37.01
40872;BME280;26591;43.264;26.940;2022-09-09T09:47:59;99026.38;;;28.71;36.95
40872;BME280;26591;43.264;26.940;2022-09-09T09:50:25;99007.81;;;28.78;36.99
40872;BME280;26591;43.264;26.940;2022-09-09T09:53:18;99017.34;;;28.81;36.94
40872;BME280;26591;43.264;26.940;2022-09-09T09:56:06;99016.25;;;28.82;36.60
40872;BME280;26591;43.264;26.940;2022-09-09T10:01:28;99032.81;;;28.85;36.47
40872;BME280;26591;43.264;26.940;2022-09-09T10:03:58;99012.59;;;28.62;36.93
40872;BME280;26591;43.264;26.940;2022-09-09T10:06:34;99012.84;;;28.60;36.63
40872;BME280;26591;43.264;26.940;2022-09-09T10:09:01;99015.69;;;28.50;36.75
40872;BME280;26591;43.264;26.940;2022-09-09T10:11:48;99028.22;;;28.46;36.86
40872;BME280;26591;43.264;26.940;2022-09-09T10:17:15;99018.91;;;28.87;36.31
40872;BME280;26591;43.264;26.940;2022-09-09T10:22:35;99031.75;;;29.11;36.00
40872;BME280;26591;43.264;26.940;2022-09-09T10:36:26;99020.84;;;29.11;35.54
40872;BME280;26591;43.264;26.940;2022-09-09T10:50:07;98998.84;;;29.50;34.57
40872;BME280;26591;43.264;26.940;2022-09-09T10:55:18;99010.94;;;29.44;34.63
40872;BME280;26591;43.264;26.940;2022-09-09T11:00:17;98998.78;;;29.56;34.77
40872;BME280;26591;43.264;26.940;2022-09-09T11:02:50;98993.69;;;29.49;35.01
40872;BME280;26591;43.264;26.940;2022-09-09T11:05:27;99002.91;;;29.72;34.84
40872;BME280;26591;43.264;26.940;2022-09-09T11:07:58;99013.75;;;29.77;34.58
40872;BME280;26591;43.264;26.940;2022-09-09T11:10:38;98997.31;;;30.02;34.27
40872;BME280;26591;43.264;26.940;2022-09-09T11:13:13;99003.97;;;29.95;34.16
40872;BME280;26591;43.264;26.940;2022-09-09T11:15:50;98996.16;;;30.08;34.17
40872;BME280;26591;43.264;26.940;2022-09-09T11:18:20;98992.53;;;29.93;34.19
40872;BME280;26591;43.264;26.940;2022-09-09T11:20:50;98978.22;;;29.82;34.95
40872;BME280;26591;43.264;26.940;2022-09-09T11:23:24;98995.41;;;29.83;34.77
40872;BME280;26591;43.264;26.940;2022-09-09T11:25:59;98987.50;;;30.20;34.31
40872;BME280;26591;43.264;26.940;2022-09-09T11:42:26;98985.22;;;30.74;34.17
40872;BME280;26591;43.264;26.940;2022-09-09T11:44:52;98969.69;;;31.16;33.24
40872;BME280;26591;43.264;26.940;2022-09-09T11:47:27;98943.06;;;30.47;34.10
40872;BME280;26591;43.264;26.940;2022-09-09T11:52:44;98972.84;;;29.58;34.24
40872;BME280;26591;43.264;26.940;2022-09-09T11:55:30;98967.31;;;30.21;34.52
40872;BME280;26591;43.264;26.940;2022-09-09T12:00:45;98964.59;;;30.96;33.38
40872;BME280;26591;43.264;26.940;2022-09-09T12:06:26;98958.72;;;30.88;33.08
40872;BME280;26591;43.264;26.940;2022-09-09T12:12:17;98942.53;;;30.64;32.76
40872;BME280;26591;43.264;26.940;2022-09-09T12:17:30;98950.47;;;29.99;33.43
40872;BME280;26591;43.264;26.940;2022-09-09T12:28:24;98929.56;;;30.23;32.76
40872;BME280;26591;43.264;26.940;2022-09-09T12:31:10;98924.41;;;30.68;32.47
40872;BME280;26591;43.264;26.940;2022-09-09T12:33:43;98933.13;;;30.98;32.62
40872;BME280;26591;43.264;26.940;2022-09-09T12:36:19;98928.28;;;30.95;32.12
40872;BME280;26591;43.264;26.940;2022-09-09T12:38:47;98923.81;;;30.85;31.89
40872;BME280;26591;43.264;26.940;2022-09-09T12:41:26;98934.53;;;31.10;31.65
40872;BME280;26591;43.264;26.940;2022-09-09T12:44:06;98923.19;;;31.02;32.38
40872;BME280;26591;43.264;26.940;2022-09-09T12:46:41;98909.53;;;30.88;31.64
40872;BME280;26591;43.264;26.940;2022-09-09T12:49:32;98902.47;;;31.15;31.61
40872;BME280;26591;43.264;26.940;2022-09-09T12:52:12;98908.84;;;30.97;31.24
40872;BME280;26591;43.264;26.940;2022-09-09T12:54:44;98899.03;;;30.82;32.25
40872;BME280;26591;43.264;26.940;2022-09-09T12:57:12;98901.97;;;31.13;31.63
40872;BME280;26591;43.264;26.940;2022-09-09T12:59:41;98900.44;;;31.21;31.19
40872;BME280;26591;43.264;26.940;2022-09-09T13:02:36;98885.09;;;31.34;31.61
40872;BME280;26591;43.264;26.940;2022-09-09T13:05:16;98893.16;;;30.88;32.20
40872;BME280;26591;43.264;26.940;2022-09-09T13:07:42;98882.38;;;31.34;32.01
40872;BME280;26591;43.264;26.940;2022-09-09T13:10:11;98876.69;;;31.67;31.36
40872;BME280;26591;43.264;26.940;2022-09-09T13:12:37;98882.75;;;31.41;31.80
40872;BME280;26591;43.264;26.940;2022-09-09T13:15:04;98873.00;;;31.49;31.51
40872;BME280;26591;43.264;26.940;2022-09-09T13:17:29;98882.16;;;31.44;31.06
40872;BME280;26591;43.264;26.940;2022-09-09T13:19:55;98876.09;;;31.33;31.91
40872;BME280;26591;43.264;26.940;2022-09-09T13:22:31;98876.78;;;31.62;31.57
40872;BME280;26591;43.264;26.940;2022-09-09T13:25:00;98882.16;;;31.44;31.79
40872;BME280;26591;43.264;26.940;2022-09-09T13:28:01;98876.94;;;31.20;31.89
40872;BME280;26591;43.264;26.940;2022-09-09T13:30:28;98873.63;;;30.95;32.33
40872;BME280;26591;43.264;26.940;2022-09-09T13:35:30;98872.03;;;30.80;32.08
40872;BME280;26591;43.264;26.940;2022-09-09T13:37:56;98882.94;;;30.80;32.63
40872;BME280;26591;43.264;26.940;2022-09-09T13:40:22;98885.44;;;31.04;32.60
40872;BME280;26591;43.264;26.940;2022-09-09T13:42:52;98878.16;;;31.50;31.83
40872;BME280;26591;43.264;26.940;2022-09-09T13:45:21;98875.44;;;31.50;31.95
40872;BME280;26591;43.264;26.940;2022-09-09T13:47:49;98875.72;;;31.12;32.64
40872;BME280;26591;43.264;26.940;2022-09-09T13:50:21;98873.59;;;31.23;32.11
40872;BME280;26591;43.264;26.940;2022-09-09T13:52:49;98873.09;;;31.21;32.37
40872;BME280;26591;43.264;26.940;2022-09-09T13:55:17;98867.75;;;31.02;32.53
40872;BME280;26591;43.264;26.940;2022-09-09T13:58:00;98880.53;;;30.79;32.58
40872;BME280;26591;43.264;26.940;2022-09-09T14:00:30;98873.63;;;30.53;33.35
40872;BME280;26591;43.264;26.940;2022-09-09T14:02:56;98867.84;;;30.97;32.52
40872;BME280;26591;43.264;26.940;2022-09-09T14:05:22;98860.38;;;31.16;32.25
40872;BME280;26591;43.264;26.940;2022-09-09T14:07:49;98852.56;;;30.96;32.20
40872;BME280;26591;43.264;26.940;2022-09-09T14:10:15;98857.53;;;31.08;32.10
40872;BME280;26591;43.264;26.940;2022-09-09T14:12:41;98851.94;;;31.13;32.88
40872;BME280;26591;43.264;26.940;2022-09-09T14:15:09;98849.38;;;30.80;33.14
40872;BME280;26591;43.264;26.940;2022-09-09T14:17:35;98854.28;;;30.92;32.84
40872;BME280;26591;43.264;26.940;2022-09-09T14:20:03;98849.16;;;30.90;32.64
40872;BME280;26591;43.264;26.940;2022-09-09T14:22:30;98845.13;;;30.87;32.82
40872;BME280;26591;43.264;26.940;2022-09-09T14:24:56;98848.97;;;30.86;33.00
40872;BME280;26591;43.264;26.940;2022-09-09T14:27:22;98830.84;;;30.49;33.86
40872;BME280;26591;43.264;26.940;2022-09-09T14:29:48;98830.25;;;30.38;34.42
40872;BME280;26591;43.264;26.940;2022-09-09T14:32:14;98829.84;;;30.44;33.72
40872;BME280;26591;43.264;26.940;2022-09-09T14:34:39;98831.06;;;30.52;34.04
40872;BME280;26591;43.264;26.940;2022-09-09T14:37:05;98826.31;;;30.30;34.19
40872;BME280;26591;43.264;26.940;2022-09-09T14:39:31;98829.03;;;30.44;33.88
40872;BME280;26591;43.264;26.940;2022-09-09T14:41:57;98826.81;;;30.32;34.09
40872;BME280;26591;43.264;26.940;2022-09-09T14:44:23;98820.13;;;30.38;34.08
40872;BME280;26591;43.264;26.940;2022-09-09T14:46:48;98821.03;;;30.06;34.46
40872;BME280;26591;43.264;26.940;2022-09-09T14:49:18;98820.75;;;29.88;34.43
40872;BME280;26591;43.264;26.940;2022-09-09T14:51:43;98822.31;;;30.08;34.95
40872;BME280;26591;43.264;26.940;2022-09-09T14:54:09;98821.53;;;30.08;34.91
40872;BME280;26591;43.264;26.940;2022-09-09T14:56:36;98821.94;;;30.29;34.46
40872;BME280;26591;43.264;26.940;2022-09-09T14:59:02;98824.97;;;29.99;34.66
40872;BME280;26591;43.264;26.940;2022-09-09T15:01:29;98817.81;;;29.84;34.85
40872;BME280;26591;43.264;26.940;2022-09-09T15:03:57;98820.91;;;29.97;34.62
40872;BME280;26591;43.264;26.940;2022-09-09T15:06:24;98815.16;;;29.79;34.99
40872;BME280;26591;43.264;26.940;2022-09-09T15:08:52;98811.59;;;29.65;35.13
40872;BME280;26591;43.264;26.940;2022-09-09T15:11:19;98812.53;;;29.41;35.92
40872;BME280;26591;43.264;26.940;2022-09-09T15:13:46;98820.72;;;29.22;36.56
40872;BME280;26591;43.264;26.940;2022-09-09T15:16:19;98830.63;;;28.93;37.87
40872;BME280;26591;43.264;26.940;2022-09-09T15:18:46;98838.19;;;28.77;38.12
40872;BME280;26591;43.264;26.940;2022-09-09T15:21:14;98828.78;;;28.65;38.79
40872;BME280;26591;43.264;26.940;2022-09-09T15:23:41;98833.06;;;28.52;39.05